createdAt,value
2022-10-02T00:01:33.896Z,14.70
2022-10-02T00:04:03.668Z,14.70
2022-10-02T00:06:41.309Z,14.67
2022-10-02T00:09:16.870Z,14.68
2022-10-02T00:11:48.225Z,14.70
2022-10-02T00:14:20.067Z,14.67
2022-10-02T00:16:50.207Z,14.67
2022-10-02T00:19:20.159Z,14.68
2022-10-02T00:22:06.312Z,14.65
2022-10-02T00:24:39.800Z,14.67
2022-10-02T00:27:17.325Z,14.63
2022-10-02T00:29:51.384Z,14.60
2022-10-02T00:32:30.099Z,14.62
2022-10-02T00:35:26.603Z,14.62
2022-10-02T00:38:02.630Z,14.60
2022-10-02T00:40:43.067Z,14.58
2022-10-02T00:43:25.793Z,14.61
2022-10-02T00:46:23.537Z,14.60
2022-10-02T00:49:10.736Z,14.60
2022-10-02T00:51:52.907Z,14.62
2022-10-02T00:54:31.372Z,14.54
2022-10-02T00:57:10.198Z,14.56
2022-10-02T00:59:58.346Z,14.55
2022-10-02T01:03:01.043Z,14.52
2022-10-02T01:05:30.543Z,14.53
2022-10-02T01:07:58.679Z,14.52
2022-10-02T01:10:28.324Z,14.53
2022-10-02T01:12:57.978Z,14.53
2022-10-02T01:15:33.457Z,14.54
2022-10-02T01:18:03.266Z,14.54
2022-10-02T01:20:37.057Z,14.55
2022-10-02T01:23:14.988Z,14.56
2022-10-02T01:25:44.959Z,14.54
2022-10-02T01:28:13.697Z,14.56
2022-10-02T01:30:44.862Z,14.56
2022-10-02T01:33:16.565Z,14.57
2022-10-02T01:35:45.495Z,14.55
2022-10-02T01:38:16.483Z,14.58
2022-10-02T01:40:46.232Z,14.57
2022-10-02T01:43:18.068Z,14.56
2022-10-02T01:46:05.392Z,14.49
2022-10-02T01:48:46.385Z,14.50
2022-10-02T01:51:27.077Z,14.48
2022-10-02T01:54:06.008Z,14.45
2022-10-02T01:56:44.396Z,14.45
2022-10-02T01:59:21.844Z,14.46
2022-10-02T02:02:00.486Z,14.43
2022-10-02T02:04:34.083Z,14.44
2022-10-02T02:07:09.727Z,14.41
2022-10-02T02:09:43.748Z,14.38
2022-10-02T02:12:19.511Z,14.35
2022-10-02T02:14:53.117Z,14.36
2022-10-02T02:17:27.756Z,14.37
2022-10-02T02:20:02.009Z,14.37
2022-10-02T02:22:34.537Z,14.39
2022-10-02T02:25:08.018Z,14.38
2022-10-02T02:27:41.903Z,14.38
2022-10-02T02:30:13.201Z,14.36
2022-10-02T02:32:46.116Z,14.38
2022-10-02T02:35:18.707Z,14.37
2022-10-02T02:37:50.968Z,14.41
2022-10-02T02:40:24.209Z,14.39
2022-10-02T02:43:01.018Z,14.39
2022-10-02T02:45:33.434Z,14.36
2022-10-02T02:48:05.991Z,14.36
2022-10-02T02:50:40.712Z,14.33
2022-10-02T02:53:15.648Z,14.32
2022-10-02T02:55:48.381Z,14.32
2022-10-02T02:58:21.780Z,14.29
2022-10-02T03:00:50.465Z,14.29
2022-10-02T03:03:19.125Z,14.27
2022-10-02T03:05:51.893Z,14.25
2022-10-02T03:08:24.445Z,14.27
2022-10-02T03:11:06.356Z,14.26
2022-10-02T03:13:53.307Z,14.25
2022-10-02T03:16:37.801Z,14.25
2022-10-02T03:19:24.843Z,14.24
2022-10-02T03:22:02.764Z,14.23
2022-10-02T03:24:36.605Z,14.22
2022-10-02T03:27:11.050Z,14.26
2022-10-02T03:29:46.583Z,14.24
2022-10-02T03:32:17.511Z,14.24
2022-10-02T03:34:45.619Z,14.21
2022-10-02T03:37:13.854Z,14.22
2022-10-02T03:39:44.264Z,14.23
2022-10-02T03:42:14.359Z,14.21
2022-10-02T03:44:44.456Z,14.19
2022-10-02T03:47:12.745Z,14.19
2022-10-02T03:49:40.890Z,14.19
2022-10-02T03:52:09.161Z,14.19
2022-10-02T03:54:38.150Z,14.15
2022-10-02T03:57:08.704Z,14.15
2022-10-02T03:59:45.932Z,14.15
2022-10-02T04:02:28.221Z,14.15
2022-10-02T04:05:01.720Z,14.14
2022-10-02T04:07:38.546Z,14.13
2022-10-02T04:10:24.294Z,14.13
2022-10-02T04:12:55.084Z,14.11
2022-10-02T04:15:30.288Z,14.14
2022-10-02T04:18:04.438Z,14.11
2022-10-02T04:20:41.765Z,14.13
2022-10-02T04:23:16.850Z,14.13
2022-10-02T04:25:51.117Z,14.13
2022-10-02T04:28:24.790Z,14.13
2022-10-02T04:30:55.077Z,14.09
2022-10-02T04:33:25.605Z,14.10
2022-10-02T04:36:04.457Z,14.11
2022-10-02T04:38:45.401Z,14.09
2022-10-02T04:41:21.670Z,14.11
2022-10-02T04:44:05.871Z,14.08
2022-10-02T04:47:00.504Z,14.07
2022-10-02T04:49:45.924Z,14.04
2022-10-02T04:52:42.826Z,14.02
2022-10-02T04:55:31.339Z,14.08
2022-10-02T04:58:18.541Z,14.02
2022-10-02T05:00:52.474Z,14.02
2022-10-02T05:03:37.205Z,14.03
2022-10-02T05:06:21.968Z,14.00
2022-10-02T05:09:03.158Z,14.03
2022-10-02T05:11:57.138Z,14.01
2022-10-02T05:15:04.907Z,13.99
2022-10-02T05:17:47.348Z,13.99
2022-10-02T05:20:35.259Z,13.97
2022-10-02T05:23:17.664Z,13.96
2022-10-02T05:26:03.447Z,13.97
2022-10-02T05:28:53.581Z,13.98
2022-10-02T05:31:33.343Z,13.93
2022-10-02T05:34:18.890Z,13.92
2022-10-02T05:37:06.597Z,13.94
2022-10-02T05:39:37.868Z,13.92
2022-10-02T05:42:14.254Z,13.92
2022-10-02T05:44:46.503Z,13.91
2022-10-02T05:47:23.642Z,13.90
2022-10-02T05:49:57.443Z,13.91
2022-10-02T05:52:32.413Z,13.93
2022-10-02T05:55:08.865Z,13.92
2022-10-02T05:57:42.137Z,13.92
2022-10-02T06:00:31.321Z,13.91
2022-10-02T06:03:09.418Z,13.91
2022-10-02T06:05:46.920Z,13.92
2022-10-02T06:08:19.223Z,13.94
2022-10-02T06:10:51.769Z,13.85
2022-10-02T06:13:25.783Z,13.91
2022-10-02T06:16:00.414Z,13.91
2022-10-02T06:18:34.408Z,13.88
2022-10-02T06:21:08.156Z,13.87
2022-10-02T06:23:43.436Z,13.88
2022-10-02T06:26:16.542Z,13.88
2022-10-02T06:28:51.623Z,13.89
2022-10-02T06:31:27.531Z,13.89
2022-10-02T06:33:56.216Z,13.90
2022-10-02T06:36:42.877Z,13.87
2022-10-02T06:39:32.785Z,13.89
2022-10-02T06:42:10.141Z,13.91
2022-10-02T06:44:47.995Z,13.90
2022-10-02T06:47:34.992Z,13.90
2022-10-02T06:50:21.244Z,13.90
2022-10-02T06:52:59.224Z,13.91
2022-10-02T06:55:41.165Z,13.91
2022-10-02T06:58:26.387Z,13.92
2022-10-02T07:01:04.355Z,13.93
2022-10-02T07:03:45.621Z,13.84
2022-10-02T07:06:21.909Z,13.88
2022-10-02T07:09:16.143Z,13.87
2022-10-02T07:11:55.352Z,13.92
2022-10-02T07:14:32.081Z,13.90
2022-10-02T07:17:14.480Z,13.93
2022-10-02T07:20:07.689Z,13.94
2022-10-02T07:22:51.340Z,13.94
2022-10-02T07:25:52.468Z,13.97
2022-10-02T07:28:27.712Z,14.01
2022-10-02T07:31:03.832Z,13.93
2022-10-02T07:33:48.793Z,13.93
2022-10-02T07:36:27.471Z,13.96
2022-10-02T07:39:16.235Z,13.96
2022-10-02T07:42:04.508Z,13.93
2022-10-02T07:45:00.387Z,14.02
2022-10-02T07:47:49.963Z,14.00
2022-10-02T07:50:27.379Z,14.04
2022-10-02T07:53:03.141Z,14.06
2022-10-02T07:55:31.383Z,14.08
2022-10-02T07:58:04.714Z,14.13
2022-10-02T08:00:38.390Z,14.11
2022-10-02T08:03:11.457Z,14.16
2022-10-02T08:05:44.574Z,14.17
2022-10-02T08:08:19.325Z,14.19
2022-10-02T08:10:52.884Z,14.22
2022-10-02T08:13:28.476Z,14.22
2022-10-02T08:15:57.910Z,14.27
2022-10-02T08:18:34.970Z,14.24
2022-10-02T08:21:05.377Z,14.23
2022-10-02T08:23:38.953Z,14.26
2022-10-02T08:26:13.581Z,14.26
2022-10-02T08:28:45.774Z,14.30
2022-10-02T08:31:16.058Z,14.31
2022-10-02T08:33:44.265Z,14.36
2022-10-02T08:36:58.446Z,14.26
2022-10-02T08:39:45.865Z,14.32
2022-10-02T08:42:45.517Z,14.35
2022-10-02T08:45:34.067Z,14.35
2022-10-02T08:48:34.849Z,14.38
2022-10-02T08:51:39.376Z,14.41
2022-10-02T08:54:35.169Z,14.30
2022-10-02T08:57:19.685Z,14.37
2022-10-02T09:00:11.035Z,14.45
2022-10-02T09:03:33.461Z,14.45
2022-10-02T09:06:48.977Z,14.51
2022-10-02T09:09:53.424Z,14.62
2022-10-02T09:13:28.018Z,14.57
2022-10-02T09:16:10.120Z,14.58
2022-10-02T09:18:55.333Z,14.67
2022-10-02T09:21:44.847Z,14.70
2022-10-02T09:24:52.825Z,14.78
2022-10-02T09:27:54.538Z,14.84
2022-10-02T09:30:35.315Z,14.89
2022-10-02T09:33:35.347Z,14.87
2022-10-02T09:36:47.784Z,14.79
2022-10-02T09:40:03.115Z,14.78
2022-10-02T09:42:58.101Z,14.80
2022-10-02T09:46:00.861Z,14.87
2022-10-02T09:49:06.232Z,14.89
2022-10-02T09:51:56.665Z,14.97
2022-10-02T09:54:52.362Z,14.92
2022-10-02T09:57:47.066Z,14.95
2022-10-02T10:00:27.588Z,14.91
2022-10-02T10:03:30.630Z,15.03
2022-10-02T10:06:24.907Z,14.97
2022-10-02T10:09:40.542Z,15.06
2022-10-02T10:12:48.224Z,15.00
2022-10-02T10:15:57.637Z,15.12
2022-10-02T10:18:57.297Z,15.19
2022-10-02T10:22:06.881Z,15.20
2022-10-02T10:25:13.706Z,15.33
2022-10-02T10:28:09.189Z,15.28
2022-10-02T10:31:01.325Z,15.39
2022-10-02T10:34:11.680Z,15.50
2022-10-02T10:37:15.500Z,15.51
2022-10-02T10:40:18.259Z,15.50
2022-10-02T10:43:28.226Z,15.49
2022-10-02T10:46:17.499Z,15.47
2022-10-02T10:49:11.804Z,15.50
2022-10-02T10:51:48.657Z,15.54
2022-10-02T10:54:48.785Z,15.62
2022-10-02T10:57:37.545Z,15.68
2022-10-02T11:00:19.096Z,15.75
2022-10-02T11:03:22.530Z,15.81
2022-10-02T11:06:12.544Z,15.78
2022-10-02T11:09:12.870Z,15.85
2022-10-02T11:11:59.470Z,15.92
2022-10-02T11:14:38.331Z,16.22
2022-10-02T11:17:41.058Z,16.28
2022-10-02T11:20:29.559Z,16.27
2022-10-02T11:23:23.995Z,16.46
2022-10-02T11:26:16.006Z,16.69
2022-10-02T11:29:13.145Z,16.94
2022-10-02T11:32:03.279Z,16.80
2022-10-02T11:34:55.721Z,16.42
2022-10-02T11:37:41.759Z,16.28
2022-10-02T11:40:23.943Z,16.58
2022-10-02T11:43:03.196Z,16.90
2022-10-02T11:45:55.482Z,17.06
2022-10-02T11:48:49.749Z,17.27
2022-10-02T11:51:53.159Z,17.45
2022-10-02T11:54:44.903Z,17.54
2022-10-02T11:57:28.279Z,17.57
2022-10-02T12:00:09.095Z,17.75
2022-10-02T12:02:53.173Z,17.76
2022-10-02T12:05:38.054Z,18.05
2022-10-02T12:08:17.490Z,18.55
2022-10-02T12:10:53.874Z,18.64
2022-10-02T12:13:33.853Z,18.53
2022-10-02T12:16:12.025Z,18.74
2022-10-02T12:18:57.234Z,18.48
2022-10-02T12:22:03.514Z,18.94
2022-10-02T12:24:58.690Z,18.94
2022-10-02T12:27:40.303Z,19.34
2022-10-02T12:30:12.205Z,19.11
2022-10-02T12:33:21.926Z,19.43
2022-10-02T12:36:08.617Z,19.25
2022-10-02T12:38:52.350Z,19.00
2022-10-02T12:41:37.325Z,18.80
2022-10-02T12:44:33.231Z,18.76
2022-10-02T12:47:15.490Z,18.33
2022-10-02T12:49:55.668Z,18.20
2022-10-02T12:53:04.389Z,17.88
2022-10-02T12:56:01.444Z,17.98
2022-10-02T12:58:43.620Z,17.84
2022-10-02T13:01:39.132Z,17.84
2022-10-02T13:04:45.816Z,17.48
2022-10-02T13:07:55.871Z,17.56
2022-10-02T13:10:26.724Z,17.37
2022-10-02T13:13:12.619Z,17.44
2022-10-02T13:15:54.933Z,17.21
2022-10-02T13:18:43.924Z,17.28
2022-10-02T13:21:21.260Z,17.28
2022-10-02T13:24:05.459Z,17.39
2022-10-02T13:26:42.562Z,17.39
2022-10-02T13:29:37.120Z,17.36
2022-10-02T13:32:31.988Z,17.42
2022-10-02T13:35:30.493Z,17.48
2022-10-02T13:38:17.705Z,17.65
2022-10-02T13:40:55.888Z,17.55
2022-10-02T13:43:40.929Z,17.56
2022-10-02T13:46:18.843Z,17.62
2022-10-02T13:49:00.157Z,17.63
2022-10-02T13:51:46.127Z,17.61
2022-10-02T13:54:39.295Z,17.60
2022-10-02T13:57:21.048Z,17.53
2022-10-02T14:00:02.206Z,17.38
2022-10-02T14:03:05.091Z,17.36
2022-10-02T14:05:42.611Z,17.50
2022-10-02T14:08:31.198Z,17.54
2022-10-02T14:11:10.940Z,17.35
2022-10-02T14:13:54.105Z,17.44
2022-10-02T14:16:36.167Z,17.41
2022-10-02T14:19:31.210Z,17.32
2022-10-02T14:22:19.329Z,17.34
2022-10-02T14:25:10.901Z,17.20
2022-10-02T14:28:23.807Z,17.24
2022-10-02T14:31:17.691Z,17.17
2022-10-02T14:34:05.056Z,17.15
2022-10-02T14:36:40.427Z,17.03
2022-10-02T14:39:27.294Z,17.02
2022-10-02T14:42:28.663Z,17.10
2022-10-02T14:45:21.573Z,17.14
2022-10-02T14:48:03.814Z,17.12
2022-10-02T14:50:44.888Z,17.15
2022-10-02T14:53:33.463Z,17.22
2022-10-02T14:56:43.606Z,17.21
2022-10-02T14:59:24.249Z,17.12
2022-10-02T15:02:04.520Z,17.06
2022-10-02T15:04:46.008Z,16.86
2022-10-02T15:07:16.330Z,16.89
2022-10-02T15:09:59.117Z,16.75
2022-10-02T15:12:43.907Z,16.76
2022-10-02T15:15:17.783Z,16.77
2022-10-02T15:17:56.659Z,16.88
2022-10-02T15:20:37.939Z,16.88
2022-10-02T15:23:10.410Z,16.86
2022-10-02T15:25:55.447Z,16.94
2022-10-02T15:28:38.931Z,16.98
2022-10-02T15:31:19.828Z,17.03
2022-10-02T15:34:02.289Z,17.07
2022-10-02T15:36:53.486Z,17.05
2022-10-02T15:39:52.499Z,17.01
2022-10-02T15:42:29.654Z,17.06
2022-10-02T15:45:20.534Z,17.09
2022-10-02T15:48:06.580Z,17.11
2022-10-02T15:50:46.299Z,17.16
2022-10-02T15:53:33.642Z,17.19
2022-10-02T15:56:16.382Z,17.30
2022-10-02T15:59:01.134Z,17.30
2022-10-02T16:01:44.374Z,17.32
2022-10-02T16:04:25.069Z,17.22
2022-10-02T16:07:32.980Z,17.14
2022-10-02T16:10:15.000Z,17.08
2022-10-02T16:12:58.167Z,17.03
2022-10-02T16:15:31.698Z,16.99
2022-10-02T16:18:23.041Z,16.93
2022-10-02T16:21:13.664Z,16.91
2022-10-02T16:24:10.718Z,16.92
2022-10-02T16:26:59.452Z,16.97
2022-10-02T16:29:35.544Z,16.91
2022-10-02T16:32:17.419Z,16.76
2022-10-02T16:35:16.544Z,16.80
2022-10-02T16:37:46.673Z,16.71
2022-10-02T16:40:26.893Z,16.64
2022-10-02T16:43:20.893Z,16.55
2022-10-02T16:46:04.533Z,16.51
2022-10-02T16:48:42.605Z,16.50
2022-10-02T16:51:27.821Z,16.46
2022-10-02T16:54:03.575Z,16.49
2022-10-02T16:56:41.077Z,16.43
2022-10-02T16:59:15.164Z,16.39
2022-10-02T17:02:05.933Z,16.32
2022-10-02T17:04:50.208Z,16.42
2022-10-02T17:07:31.681Z,16.39
2022-10-02T17:10:07.320Z,16.31
2022-10-02T17:12:45.676Z,16.29
2022-10-02T17:15:22.019Z,16.21
2022-10-02T17:18:06.266Z,16.17
2022-10-02T17:20:43.547Z,16.15
2022-10-02T17:23:21.979Z,16.14
2022-10-02T17:25:58.075Z,16.17
2022-10-02T17:28:34.761Z,16.14
2022-10-02T17:31:35.521Z,16.07
2022-10-02T17:34:19.925Z,16.00
2022-10-02T17:37:02.405Z,15.97
2022-10-02T17:39:53.857Z,15.92
2022-10-02T17:42:35.349Z,15.96
2022-10-02T17:45:16.866Z,15.88
2022-10-02T17:48:07.572Z,15.87
2022-10-02T17:50:58.306Z,15.80
2022-10-02T17:53:56.964Z,15.67
2022-10-02T17:56:55.384Z,15.64
2022-10-02T17:59:41.277Z,15.61
2022-10-02T18:02:19.490Z,15.52
2022-10-02T18:05:19.399Z,15.47
2022-10-02T18:08:18.360Z,15.39
2022-10-02T18:11:14.889Z,15.32
2022-10-02T18:14:00.050Z,15.24
2022-10-02T18:16:45.791Z,15.10
2022-10-02T18:19:27.866Z,15.04
2022-10-02T18:22:20.249Z,14.98
2022-10-02T18:25:21.207Z,14.91
2022-10-02T18:28:05.760Z,14.84
2022-10-02T18:30:46.205Z,14.77
2022-10-02T18:33:42.395Z,14.73
2022-10-02T18:36:24.694Z,14.67
2022-10-02T18:39:01.093Z,14.63
2022-10-02T18:41:48.882Z,14.59
2022-10-02T18:44:51.711Z,14.52
2022-10-02T18:47:36.512Z,14.49
2022-10-02T18:50:21.278Z,14.43
2022-10-02T18:53:15.876Z,14.38
2022-10-02T18:56:03.302Z,14.34
2022-10-02T18:58:44.380Z,14.28
2022-10-02T19:01:39.430Z,14.25
2022-10-02T19:04:24.486Z,14.15
2022-10-02T19:07:02.992Z,14.09
2022-10-02T19:09:32.296Z,14.06
2022-10-02T19:12:05.178Z,14.01
2022-10-02T19:14:41.862Z,13.96
2022-10-02T19:17:14.996Z,13.91
2022-10-02T19:19:45.167Z,13.87
2022-10-02T19:22:20.301Z,13.81
2022-10-02T19:24:51.564Z,13.72
2022-10-02T19:27:26.437Z,13.66
2022-10-02T19:29:57.850Z,13.61
2022-10-02T19:32:31.277Z,13.53
2022-10-02T19:35:07.574Z,13.50
2022-10-02T19:37:42.329Z,13.42
2022-10-02T19:40:16.790Z,13.39
2022-10-02T19:42:49.515Z,13.32
2022-10-02T19:45:25.471Z,13.27
2022-10-02T19:47:59.785Z,13.20
2022-10-02T19:50:41.011Z,13.12
2022-10-02T19:53:21.432Z,13.07
2022-10-02T19:55:53.881Z,13.01
2022-10-02T19:58:24.047Z,12.95
2022-10-02T20:00:54.139Z,12.90
2022-10-02T20:03:24.295Z,12.86
2022-10-02T20:05:58.446Z,12.81
2022-10-02T20:08:30.987Z,12.76
2022-10-02T20:11:05.353Z,12.69
2022-10-02T20:13:37.743Z,12.62
2022-10-02T20:16:31.994Z,12.57
2022-10-02T20:19:00.909Z,12.53
2022-10-02T20:21:39.601Z,12.51
2022-10-02T20:24:18.387Z,12.41
2022-10-02T20:26:48.772Z,12.44
2022-10-02T20:29:24.174Z,12.39
2022-10-02T20:31:59.537Z,12.38
2022-10-02T20:34:35.794Z,12.34
2022-10-02T20:37:09.453Z,12.32
2022-10-02T20:39:41.344Z,12.29
2022-10-02T20:42:16.239Z,12.24
2022-10-02T20:44:44.444Z,12.22
2022-10-02T20:47:45.377Z,12.16
2022-10-02T20:50:31.425Z,12.10
2022-10-02T20:53:37.814Z,12.08
2022-10-02T20:56:11.759Z,12.03
2022-10-02T20:58:57.262Z,11.96
2022-10-02T21:01:35.780Z,11.88
2022-10-02T21:04:36.949Z,11.87
2022-10-02T21:07:21.904Z,11.84
2022-10-02T21:10:28.345Z,11.81
2022-10-02T21:13:33.039Z,11.75
2022-10-02T21:16:37.130Z,11.74
2022-10-02T21:19:47.171Z,11.67
2022-10-02T21:22:44.208Z,11.59
2022-10-02T21:25:40.312Z,11.57
2022-10-02T21:28:54.683Z,11.52
2022-10-02T21:31:37.791Z,11.45
2022-10-02T21:34:21.822Z,11.44
2022-10-02T21:36:54.861Z,11.41
2022-10-02T21:40:01.023Z,11.38
2022-10-02T21:43:17.717Z,11.30
2022-10-02T21:46:23.060Z,11.26
2022-10-02T21:49:20.845Z,11.28
2022-10-02T21:52:16.538Z,11.22
2022-10-02T21:55:13.259Z,11.24
2022-10-02T21:58:21.795Z,11.16
2022-10-02T22:01:09.062Z,11.09
2022-10-02T22:04:11.960Z,11.09
2022-10-02T22:06:50.137Z,11.06
2022-10-02T22:09:38.355Z,11.04
2022-10-02T22:12:20.756Z,11.02
2022-10-02T22:14:58.755Z,10.97
2022-10-02T22:17:32.700Z,10.94
2022-10-02T22:20:41.420Z,10.91
2022-10-02T22:23:29.226Z,10.85
2022-10-02T22:26:12.538Z,10.81
2022-10-02T22:28:46.067Z,10.83
2022-10-02T22:31:36.329Z,10.75
2022-10-02T22:34:22.432Z,10.77
2022-10-02T22:37:07.958Z,10.75
2022-10-02T22:39:41.339Z,10.74
2022-10-02T22:42:18.059Z,10.66
2022-10-02T22:44:52.462Z,10.59
2022-10-02T22:47:28.779Z,10.60
2022-10-02T22:50:05.178Z,10.53
2022-10-02T22:52:42.856Z,10.56
2022-10-02T22:55:16.154Z,10.53
2022-10-02T22:57:50.478Z,10.47
2022-10-02T23:00:22.007Z,10.46
2022-10-02T23:02:58.047Z,10.42
2022-10-02T23:05:33.214Z,10.42
2022-10-02T23:08:13.740Z,10.38
2022-10-02T23:10:46.675Z,10.33
2022-10-02T23:13:23.129Z,10.26
2022-10-02T23:15:59.430Z,10.26
2022-10-02T23:18:37.522Z,10.17
2022-10-02T23:21:19.420Z,10.21
2022-10-02T23:23:55.507Z,10.16
2022-10-02T23:26:33.362Z,10.17
2022-10-02T23:29:15.359Z,10.14
2022-10-02T23:31:51.307Z,10.10
2022-10-02T23:34:30.948Z,10.07
2022-10-02T23:37:02.944Z,10.06
2022-10-02T23:39:40.080Z,10.01
2022-10-02T23:42:11.951Z,9.97
2022-10-02T23:44:44.986Z,9.98
2022-10-02T23:47:25.314Z,9.91
2022-10-02T23:49:55.421Z,9.89
2022-10-02T23:52:58.284Z,9.83
2022-10-02T23:55:44.741Z,9.84
2022-10-02T23:58:31.292Z,9.80
